Time;durP1;ratioP1;P1;durP2;ratioP2;P2;SDS_P1;SDS_P2;PMS_P1;PMS_P2;Temp;Humidity;BMP_temperature;BMP_pressure;BME280_temperature;BME280_humidity;BME280_pressure;Samples;Min_cycle;Max_cycle;Signal;HPM_P1;HPM_P2
2022/02/09 00:02:06;;;;;;;5.00;4.00;;;6.50;99.90;;;;;;5017115;28;20655;-86
2022/02/09 00:04:40;;;;;;;6.20;4.50;;;6.60;99.90;;;;;;5027856;28;21070;-86
2022/02/09 00:07:14;;;;;;;5.40;4.30;;;6.70;99.90;;;;;;5016119;28;20420;-86
2022/02/09 00:09:44;;;;;;;7.67;4.37;;;6.60;99.90;;;;;;5023208;28;20629;-85
2022/02/09 00:12:18;;;;;;;4.90;4.37;;;6.70;99.90;;;;;;5019294;28;20643;-86
2022/02/09 00:14:56;;;;;;;6.43;4.70;;;6.60;99.90;;;;;;5022576;28;20636;-85
2022/02/09 00:28:50;;;;;;;7.25;4.55;;;6.60;99.90;;;;;;5012867;28;20212;-86
2022/02/09 00:31:53;;;;;;;5.10;3.53;;;6.60;99.90;;;;;;5026112;28;20285;-85
2022/02/09 00:40:11;;;;;;;4.47;3.83;;;6.60;99.90;;;;;;4995466;28;20696;-86
2022/02/09 00:59:40;;;;;;;4.33;2.90;;;6.70;99.90;;;;;;5028666;28;20209;-86
2022/02/09 01:38:14;;;;;;;4.90;3.67;;;6.70;99.90;;;;;;5008899;28;20245;-85
2022/02/09 01:57:24;;;;;;;5.50;3.17;;;6.70;99.90;;;;;;5002895;28;20302;-86
2022/02/09 01:59:51;;;;;;;3.72;3.20;;;6.70;99.90;;;;;;5018965;28;20200;-86
2022/02/09 02:02:18;;;;;;;3.07;2.83;;;6.60;99.90;;;;;;5017745;28;20324;-86
2022/02/09 02:04:47;;;;;;;10.25;3.10;;;6.50;99.90;;;;;;5024518;28;20689;-86
2022/02/09 02:07:25;;;;;;;5.85;3.50;;;6.60;99.90;;;;;;5025501;28;20197;-85
2022/02/09 02:09:59;;;;;;;6.10;3.03;;;6.70;99.90;;;;;;5027933;28;20295;-85
2022/02/09 02:12:28;;;;;;;3.45;2.75;;;6.60;99.90;;;;;;5008697;28;20197;-86
2022/02/09 02:14:59;;;;;;;4.47;2.75;;;6.60;99.90;;;;;;5023775;28;20243;-86
2022/02/09 02:17:34;;;;;;;5.30;3.10;;;6.60;99.90;;;;;;5022447;28;20730;-85
2022/02/09 02:20:13;;;;;;;2.90;2.70;;;6.60;99.90;;;;;;5008222;28;20611;-86
2022/02/09 02:22:59;;;;;;;3.35;2.60;;;6.60;99.90;;;;;;5013293;28;20201;-86
2022/02/09 02:25:56;;;;;;;5.28;3.45;;;6.50;99.90;;;;;;5020661;28;20302;-86
2022/02/09 02:28:43;;;;;;;5.95;2.60;;;6.60;99.90;;;;;;5018777;28;20201;-86
2022/02/09 02:34:26;;;;;;;2.95;2.65;;;6.20;99.90;;;;;;5001020;28;20222;-86
2022/02/09 02:37:10;;;;;;;4.30;2.78;;;6.80;99.90;;;;;;5016833;28;20201;-86
2022/02/09 02:40:01;;;;;;;2.30;2.08;;;6.50;99.90;;;;;;5028462;28;20197;-86
2022/02/09 03:10:47;;;;;;;2.72;2.40;;;6.70;99.90;;;;;;5084669;28;20214;-87
2022/02/09 03:13:17;;;;;;;2.03;1.77;;;7.10;99.90;;;;;;5085261;28;20256;-87
2022/02/09 03:15:50;;;;;;;2.72;2.08;;;6.70;99.90;;;;;;5083862;28;20669;-87
2022/02/09 03:18:39;;;;;;;2.55;2.00;;;6.70;99.90;;;;;;5085078;28;20209;-87
2022/02/09 03:21:19;;;;;;;2.90;2.10;;;6.60;99.90;;;;;;5084961;28;20202;-88
2022/02/09 03:23:50;;;;;;;3.58;1.80;;;6.60;99.90;;;;;;5084324;28;20191;-88
2022/02/09 03:42:57;;;;;;;3.77;2.33;;;6.70;99.90;;;;;;5083824;28;20195;-88
2022/02/09 03:48:35;;;;;;;4.63;2.40;;;6.60;99.90;;;;;;5052677;28;20328;-88
2022/02/09 03:51:31;;;;;;;2.63;2.20;;;6.20;99.90;;;;;;5084208;28;20227;-88
2022/02/09 03:54:09;;;;;;;1.83;1.73;;;6.60;99.90;;;;;;5083328;28;20973;-88
2022/02/09 03:56:55;;;;;;;1.90;1.80;;;6.60;99.90;;;;;;5084854;28;20627;-88
2022/02/09 03:59:22;;;;;;;2.93;2.47;;;6.80;99.90;;;;;;5071103;28;20731;-87
2022/02/09 04:01:49;;;;;;;2.47;2.27;;;6.50;99.90;;;;;;5070500;28;20621;-88
2022/02/09 04:04:16;;;;;;;5.97;2.10;;;6.50;99.90;;;;;;5070148;28;20922;-88
2022/02/09 04:06:45;;;;;;;2.95;2.05;;;6.60;99.90;;;;;;5070396;28;20222;-89
2022/02/09 04:09:16;;;;;;;3.00;1.95;;;7.40;99.90;;;;;;5070188;28;20286;-87
2022/02/09 04:11:47;;;;;;;3.50;1.85;;;6.60;99.90;;;;;;5070352;28;20196;-87
2022/02/09 04:14:23;;;;;;;3.80;2.22;;;6.60;99.90;;;;;;5070046;28;20657;-87
2022/02/09 04:16:59;;;;;;;2.92;1.73;;;6.60;99.90;;;;;;5070695;28;20249;-88
2022/02/09 04:19:35;;;;;;;2.55;2.20;;;6.60;99.90;;;;;;5070397;28;20281;-87
2022/02/09 04:36:14;;;;;;;4.75;3.00;;;6.70;99.90;;;;;;5070221;28;20290;-87
2022/02/09 04:38:47;;;;;;;5.03;2.80;;;6.40;99.90;;;;;;5069505;28;20262;-88
2022/02/09 04:41:34;;;;;;;10.18;3.17;;;6.20;99.90;;;;;;5069190;28;20199;-87
2022/02/09 04:44:19;;;;;;;4.15;2.80;;;6.40;99.90;;;;;;5062605;28;20231;-87
2022/02/09 04:49:43;;;;;;;4.50;2.45;;;6.40;99.90;;;;;;5050779;28;20191;-87
2022/02/09 04:55:01;;;;;;;4.10;3.25;;;6.40;99.90;;;;;;5052914;28;20620;-87
2022/02/09 04:57:35;;;;;;;6.63;3.58;;;6.30;99.90;;;;;;5069913;28;20311;-87
2022/02/09 05:00:24;;;;;;;3.90;3.50;;;6.30;99.90;;;;;;5052628;28;20794;-87
2022/02/09 05:25:40;;;;;;;5.60;3.47;;;6.30;99.90;;;;;;5062527;28;20314;-85
2022/02/09 05:28:10;;;;;;;3.42;3.13;;;6.30;99.90;;;;;;5073282;28;20691;-84
2022/02/09 05:30:38;;;;;;;7.50;4.68;;;6.30;99.90;;;;;;5083911;28;20488;-85
2022/02/09 05:33:06;;;;;;;5.18;3.05;;;;;;;;;;5069064;28;20203;-85
2022/02/09 05:35:33;;;;;;;3.83;3.08;;;6.20;99.80;;;;;;5087092;28;20187;-88
2022/02/09 05:38:00;;;;;;;5.60;3.28;;;6.30;99.90;;;;;;5081053;28;20479;-87
2022/02/09 05:40:29;;;;;;;3.45;3.05;;;6.30;99.90;;;;;;5072207;28;20284;-88
2022/02/09 05:42:56;;;;;;;4.93;3.83;;;6.20;99.90;;;;;;5083305;28;20194;-88
2022/02/09 05:45:28;;;;;;;6.65;4.10;;;;;;;;;;5082302;28;20639;-87
2022/02/09 05:50:52;;;;;;;3.80;3.45;;;6.20;99.90;;;;;;5068825;28;20199;-88
2022/02/09 05:53:23;;;;;;;6.00;3.35;;;6.20;99.90;;;;;;5068987;28;20214;-87
2022/02/09 05:55:52;;;;;;;4.28;2.95;;;6.30;99.80;;;;;;5068157;28;20196;-88
2022/02/09 05:58:36;;;;;;;5.65;4.05;;;6.30;99.60;;;;;;5068167;28;20638;-88
2022/02/09 06:01:05;;;;;;;3.70;3.13;;;6.30;99.40;;;;;;5068493;28;20203;-88
2022/02/09 06:03:36;;;;;;;3.83;2.95;;;6.30;99.70;;;;;;5067929;28;20249;-87
2022/02/09 06:06:03;;;;;;;4.45;3.55;;;6.90;99.90;;;;;;5067911;28;20301;-88
2022/02/09 06:08:31;;;;;;;7.22;4.10;;;6.00;99.90;;;;;;5067704;28;20230;-88
2022/02/09 06:11:11;;;;;;;5.43;3.78;;;5.20;98.90;;;;;;5066134;28;20227;-88
2022/02/09 06:13:57;;;;;;;4.65;3.47;;;6.20;99.50;;;;;;5062126;28;20207;-84
2022/02/09 06:21:53;;;;;;;4.68;3.55;;;6.10;99.60;;;;;;5067000;28;20213;-84
2022/02/09 06:24:21;;;;;;;8.07;3.80;;;6.20;99.50;;;;;;5066516;28;20227;-85
2022/02/09 06:26:48;;;;;;;8.02;3.60;;;6.20;99.60;;;;;;5067886;28;20342;-85
2022/02/09 06:29:15;;;;;;;6.50;4.45;;;6.10;99.90;;;;;;5065472;28;20778;-85
2022/02/09 06:31:44;;;;;;;5.57;4.35;;;6.10;99.90;;;;;;5067068;28;20717;-85
2022/02/09 06:34:14;;;;;;;4.78;3.90;;;6.30;99.90;;;;;;5065433;28;20197;-84
2022/02/09 06:36:44;;;;;;;8.32;3.67;;;6.10;99.60;;;;;;5067240;28;20202;-85
2022/02/09 06:39:13;;;;;;;4.82;3.10;;;6.10;99.80;;;;;;5067812;28;20252;-85
2022/02/09 06:41:41;;;;;;;3.78;3.30;;;5.90;99.90;;;;;;5067093;28;20215;-85
2022/02/09 06:44:09;;;;;;;5.35;3.40;;;6.00;99.80;;;;;;5059318;28;20321;-84
2022/02/09 06:46:38;;;;;;;5.75;3.42;;;5.90;99.40;;;;;;5066783;28;20215;-85
2022/02/09 06:49:07;;;;;;;6.07;3.85;;;5.80;99.40;;;;;;5068144;28;20203;-85
2022/02/09 06:51:40;;;;;;;7.15;4.07;;;5.70;99.60;;;;;;5066436;28;20200;-85
2022/02/09 06:54:13;;;;;;;3.40;3.10;;;6.20;99.90;;;;;;5058012;28;20206;-86
2022/02/09 06:56:57;;;;;;;3.40;3.08;;;5.70;99.60;;;;;;5063977;28;20919;-85
2022/02/09 06:59:30;;;;;;;5.45;4.10;;;5.60;99.90;;;;;;5057784;28;20203;-85
2022/02/09 07:01:59;;;;;;;3.85;3.00;;;5.60;99.90;;;;;;5067387;28;20202;-84
2022/02/09 07:04:26;;;;;;;4.03;3.60;;;5.50;99.90;;;;;;5065354;28;20199;-85
2022/02/09 07:06:55;;;;;;;5.72;3.40;;;5.30;99.90;;;;;;5066099;28;20195;-84
2022/02/09 07:09:23;;;;;;;6.30;3.90;;;5.30;99.40;;;;;;5067785;28;20207;-85
2022/02/09 07:11:50;;;;;;;4.10;3.03;;;5.30;99.40;;;;;;5067022;28;20184;-85
2022/02/09 07:14:21;;;;;;;26.38;5.10;;;5.30;99.60;;;;;;5065449;28;20263;-84
2022/02/09 07:16:48;;;;;;;4.88;4.25;;;5.60;99.90;;;;;;5066618;28;20195;-84
2022/02/09 07:19:15;;;;;;;5.43;4.68;;;4.90;99.90;;;;;;5066931;28;20721;-85
2022/02/09 07:21:42;;;;;;;5.00;4.35;;;5.30;99.30;;;;;;5067442;28;20191;-85
2022/02/09 07:24:15;;;;;;;6.88;4.30;;;5.30;99.10;;;;;;5066083;28;20191;-84
2022/02/09 07:26:49;;;;;;;4.78;4.30;;;5.30;99.90;;;;;;5067300;28;20494;-85
2022/02/09 07:29:17;;;;;;;6.43;5.03;;;5.30;98.80;;;;;;5066983;28;20207;-85
2022/02/09 07:31:45;;;;;;;6.80;4.85;;;5.10;99.90;;;;;;5066096;28;20196;-85
2022/02/09 07:34:13;;;;;;;8.98;4.57;;;5.20;98.60;;;;;;5067392;28;20231;-84
2022/02/09 07:36:44;;;;;;;9.25;5.43;;;5.30;98.60;;;;;;5070700;28;20241;-86
2022/02/09 07:39:13;;;;;;;7.20;5.65;;;5.40;98.60;;;;;;5064676;28;20589;-84
2022/02/09 07:41:43;;;;;;;7.15;4.93;;;5.30;98.50;;;;;;5070365;28;20203;-84
2022/02/09 07:47:07;;;;;;;6.97;4.55;;;5.50;98.30;;;;;;5069108;28;20211;-85
2022/02/09 07:49:53;;;;;;;5.60;4.40;;;5.50;98.20;;;;;;5070682;28;20731;-84
2022/02/09 07:52:23;;;;;;;8.32;4.32;;;5.40;99.90;;;;;;5070698;28;20218;-85
2022/02/09 07:54:54;;;;;;;4.75;4.18;;;5.50;97.90;;;;;;5068928;28;20191;-85
2022/02/09 07:57:21;;;;;;;5.57;5.03;;;5.60;97.90;;;;;;5068989;28;20286;-84
2022/02/09 07:59:48;;;;;;;5.15;4.03;;;5.60;98.00;;;;;;5070665;28;20223;-85
2022/02/09 08:02:15;;;;;;;7.78;4.53;;;5.60;98.10;;;;;;5070465;28;20196;-85
2022/02/09 08:04:42;;;;;;;4.30;3.90;;;5.50;98.10;;;;;;5069807;28;20265;-85
2022/02/09 08:07:09;;;;;;;7.25;4.70;;;5.60;97.90;;;;;;5069474;28;20249;-85
2022/02/09 08:09:39;;;;;;;5.30;3.72;;;5.60;99.90;;;;;;5060778;28;20203;-85
2022/02/09 08:12:38;;;;;;;4.35;3.72;;;5.60;98.50;;;;;;5068782;28;20253;-85
2022/02/09 08:21:30;;;;;;;5.78;4.10;;;5.90;98.60;;;;;;5070628;28;20461;-85
2022/02/09 08:23:50;;;;;;;5.88;4.10;;;6.00;98.30;;;;;;5056975;28;20253;-85
2022/02/09 08:29:25;;;;;;;12.23;5.07;;;6.10;98.20;;;;;;5027101;28;20240;-85
2022/02/09 08:34:37;;;;;;;10.90;3.95;;;6.20;98.40;;;;;;5052753;28;20482;-84
2022/02/09 08:37:05;;;;;;;5.65;4.28;;;6.30;99.90;;;;;;5069537;28;20234;-85
2022/02/09 08:39:34;;;;;;;4.03;3.63;;;6.60;99.90;;;;;;5050091;28;20208;-85
2022/02/09 08:42:01;;;;;;;5.47;4.03;;;6.60;98.00;;;;;;5069072;28;20268;-85
2022/02/09 08:44:29;;;;;;;8.88;3.75;;;6.70;98.00;;;;;;5069358;28;20207;-85
2022/02/09 08:46:56;;;;;;;8.07;3.53;;;7.00;99.90;;;;;;5068584;28;20231;-85
2022/02/09 08:49:26;;;;;;;4.45;3.75;;;6.90;97.60;;;;;;5069553;28;20302;-85
2022/02/09 08:51:53;;;;;;;5.63;3.55;;;7.00;97.70;;;;;;5069497;28;20302;-85
2022/02/09 08:54:20;;;;;;;5.72;3.47;;;7.20;98.50;;;;;;5067784;28;20199;-85
2022/02/09 08:56:47;;;;;;;6.10;3.75;;;7.00;97.70;;;;;;5064278;28;20274;-85
2022/02/09 08:59:14;;;;;;;5.75;3.17;;;7.10;97.90;;;;;;5068701;28;20248;-85
2022/02/09 09:01:46;;;;;;;3.03;2.63;;;7.40;99.90;;;;;;5069677;28;20206;-85
2022/02/09 09:04:19;;;;;;;4.40;3.70;;;7.10;97.70;;;;;;5068440;28;20309;-85
2022/02/09 09:06:53;;;;;;;5.03;3.83;;;7.30;97.60;;;;;;5069215;28;20280;-84
2022/02/09 09:09:38;;;;;;;6.18;4.43;;;7.30;97.20;;;;;;5069506;28;20242;-85
2022/02/09 09:18:21;;;;;;;5.28;3.40;;;7.90;99.90;;;;;;5068818;28;20748;-85
2022/02/09 10:02:13;;;;;;;4.93;3.33;;;8.30;99.70;;;;;;5067551;28;20602;-85
2022/02/09 10:33:03;;;;;;;3.53;2.73;;;8.80;94.60;;;;;;5047300;28;20610;-85
2022/02/09 10:35:35;;;;;;;4.30;2.63;;;8.80;95.20;;;;;;5061758;28;20710;-85
2022/02/09 10:38:20;;;;;;;10.97;2.63;;;8.80;97.30;;;;;;5068078;28;20625;-84
2022/02/09 10:40:54;;;;;;;3.70;2.30;;;8.80;94.30;;;;;;5053816;28;20626;-85
2022/02/09 10:43:26;;;;;;;3.97;2.63;;;9.00;94.10;;;;;;5061701;28;20619;-84
2022/02/09 10:46:08;;;;;;;3.63;2.17;;;8.90;94.30;;;;;;5063638;28;20625;-85
2022/02/09 10:48:39;;;;;;;3.60;2.07;;;8.90;93.80;;;;;;5060112;28;20767;-84
2022/02/09 10:51:28;;;;;;;4.40;2.67;;;8.90;94.20;;;;;;5068171;28;20621;-85
2022/02/09 10:54:04;;;;;;;5.13;2.27;;;9.00;94.10;;;;;;5065301;28;21199;-86
2022/02/09 10:56:33;;;;;;;3.57;2.60;;;9.00;94.40;;;;;;5051321;28;20754;-85
2022/02/09 10:59:02;;;;;;;4.23;2.50;;;9.10;94.30;;;;;;5066883;28;20657;-85
2022/02/09 11:01:29;;;;;;;3.07;2.60;;;9.30;93.90;;;;;;5067498;28;20752;-84
2022/02/09 11:03:57;;;;;;;3.00;2.43;;;9.30;96.40;;;;;;5065967;28;21083;-85
2022/02/09 11:06:27;;;;;;;7.73;2.70;;;9.30;93.70;;;;;;5067178;28;20644;-85
2022/02/09 11:08:54;;;;;;;3.70;2.43;;;9.50;93.40;;;;;;5069489;28;20699;-85
2022/02/09 11:11:21;;;;;;;3.83;2.20;;;9.50;93.40;;;;;;5071946;28;20649;-85
2022/02/09 11:13:50;;;;;;;3.07;2.13;;;9.50;93.70;;;;;;5062944;28;21267;-86
2022/02/09 11:16:18;;;;;;;3.20;2.20;;;9.50;93.80;;;;;;5067373;28;20652;-85
2022/02/09 11:18:48;;;;;;;3.67;2.20;;;9.50;93.10;;;;;;5071400;28;20621;-85
2022/02/09 11:21:15;;;;;;;2.20;1.50;;;9.60;93.40;;;;;;5070741;28;20626;-85
2022/02/09 11:23:45;;;;;;;2.43;1.80;;;9.60;97.50;;;;;;5071408;28;20667;-85
2022/02/09 11:26:37;;;;;;;10.40;2.17;;;9.50;93.80;;;;;;5062917;28;20724;-85
2022/02/09 11:29:27;;;;;;;3.15;2.10;;;9.40;95.90;;;;;;5068780;28;20762;-85
2022/02/09 11:32:14;;;;;;;2.70;2.03;;;9.80;93.90;;;;;;5070800;28;20223;-85
2022/02/09 11:35:18;;;;;;;3.70;1.40;;;9.80;93.40;;;;;;5070019;28;20625;-86
2022/02/09 11:37:53;;;;;;;3.23;1.57;;;9.90;93.20;;;;;;5050442;28;20748;-85
2022/02/09 11:40:30;;;;;;;1.47;1.37;;;10.10;95.90;;;;;;5056880;28;20632;-85
2022/02/09 11:43:04;;;;;;;1.83;1.47;;;10.00;92.30;;;;;;5070957;28;20621;-85
2022/02/09 11:46:05;;;;;;;3.93;1.50;;;10.30;94.60;;;;;;5069944;28;20735;-85
2022/02/09 11:49:04;;;;;;;1.40;1.30;;;10.20;92.60;;;;;;5069323;28;20710;-85
2022/02/09 11:51:46;;;;;;;2.50;1.30;;;10.20;92.30;;;;;;5059667;28;20635;-85
2022/02/09 11:55:08;;;;;;;4.30;1.20;;;10.20;92.30;;;;;;5069451;28;20687;-86
2022/02/09 12:00:55;;;;;;;1.17;1.07;;;10.40;92.50;;;;;;5027976;28;20346;-85
2022/02/09 12:09:50;;;;;;;4.13;1.47;;;10.50;92.60;;;;;;5070727;28;20706;-88
2022/02/09 12:12:21;;;;;;;2.33;1.50;;;10.60;91.90;;;;;;5053026;28;20733;-87
2022/02/09 12:14:58;;;;;;;3.20;1.17;;;10.70;91.40;;;;;;5070393;28;20614;-87
2022/02/09 12:17:37;;;;;;;1.50;1.10;;;10.60;94.50;;;;;;5069698;28;20622;-87
2022/02/09 12:20:18;;;;;;;2.10;1.70;;;10.70;91.50;;;;;;5069657;28;20720;-87
2022/02/09 12:22:50;;;;;;;2.40;0.97;;;10.80;92.00;;;;;;5069214;28;20635;-87
2022/02/09 12:25:17;;;;;;;1.30;0.90;;;10.80;92.10;;;;;;5071008;28;20607;-87
2022/02/09 12:27:49;;;;;;;2.33;1.20;;;10.70;92.40;;;;;;5069544;28;20674;-87
2022/02/09 12:30:21;;;;;;;1.10;1.10;;;11.00;91.90;;;;;;5069913;28;20715;-87
2022/02/09 12:32:48;;;;;;;2.30;1.00;;;11.00;92.30;;;;;;5070188;28;20646;-88
2022/02/09 12:35:16;;;;;;;1.10;1.00;;;11.20;91.80;;;;;;5069027;28;20974;-87
2022/02/09 12:37:46;;;;;;;1.07;0.93;;;11.20;96.30;;;;;;5069691;28;20714;-87
2022/02/09 12:40:16;;;;;;;0.73;0.73;;;11.20;91.50;;;;;;5065691;28;20616;-86
2022/02/09 12:42:45;;;;;;;1.13;0.97;;;11.20;91.80;;;;;;5063511;28;20661;-87
2022/02/09 12:45:15;;;;;;;2.97;1.27;;;11.20;91.70;;;;;;5068437;28;20681;-87
2022/02/09 12:47:44;;;;;;;0.80;0.67;;;11.30;91.90;;;;;;5069314;28;20639;-86
2022/02/09 12:50:13;;;;;;;1.13;1.03;;;11.30;91.50;;;;;;5064821;28;20675;-87
2022/02/09 12:52:44;;;;;;;1.13;0.97;;;11.30;91.60;;;;;;5068190;28;20638;-85
2022/02/09 12:55:15;;;;;;;0.97;0.90;;;11.30;91.90;;;;;;5066265;28;20628;-85
2022/02/09 12:57:44;;;;;;;1.40;1.00;;;11.30;91.90;;;;;;5064344;28;21229;-85
2022/02/09 13:00:24;;;;;;;1.27;0.80;;;11.60;96.20;;;;;;5069484;28;20670;-85
2022/02/09 13:02:52;;;;;;;2.23;0.87;;;11.40;91.90;;;;;;5068550;28;20635;-85
2022/02/09 13:05:19;;;;;;;0.80;0.67;;;11.40;91.80;;;;;;5065375;28;20731;-85
2022/02/09 13:07:55;;;;;;;1.90;0.77;;;11.60;91.50;;;;;;5069154;28;20631;-85
2022/02/09 13:10:24;;;;;;;0.97;0.90;;;11.50;96.00;;;;;;5068811;28;20664;-85
2022/02/09 13:12:54;;;;;;;1.13;1.00;;;;;;;;;;5069046;28;20631;-85
2022/02/09 13:15:25;;;;;;;0.80;0.50;;;11.70;91.00;;;;;;5068385;28;20716;-85
2022/02/09 13:18:12;;;;;;;0.70;0.70;;;11.80;91.00;;;;;;5068532;28;20716;-85
2022/02/09 14:11:25;;;;;;;2.17;2.00;;;11.60;90.30;;;;;;5065695;28;21028;-85
2022/02/09 14:14:09;;;;;;;2.77;2.10;;;11.60;90.70;;;;;;5067939;28;20960;-85
2022/02/09 14:16:54;;;;;;;4.40;2.20;;;11.50;91.50;;;;;;5067400;28;20619;-85
2022/02/09 14:52:52;;;;;;;3.23;2.00;;;11.40;91.60;;;;;;5083741;28;20736;-86
2022/02/09 14:55:29;;;;;;;7.60;1.70;;;11.40;91.80;;;;;;5059303;28;20644;-85
2022/02/09 15:00:52;;;;;;;5.97;2.00;;;11.80;91.90;;;;;;5067775;28;21205;-85
2022/02/09 15:03:40;;;;;;;4.10;1.97;;;11.80;91.70;;;;;;5066862;28;20643;-85
2022/02/09 15:06:29;;;;;;;4.93;2.00;;;11.60;95.90;;;;;;5067560;28;20637;-85
2022/02/09 15:09:03;;;;;;;2.17;1.97;;;11.00;95.70;;;;;;5067575;28;21199;-85
2022/02/09 15:11:35;;;;;;;3.70;2.07;;;11.40;91.10;;;;;;5067588;28;20623;-85
2022/02/09 15:14:11;;;;;;;4.03;1.83;;;11.40;91.70;;;;;;5066230;28;20632;-85
2022/02/09 15:16:48;;;;;;;6.13;2.03;;;11.50;97.00;;;;;;5067048;28;20719;-85
2022/02/09 15:19:27;;;;;;;1.77;1.67;;;11.50;93.00;;;;;;5067258;28;20687;-85
2022/02/09 15:22:04;;;;;;;5.03;1.57;;;12.00;95.40;;;;;;5066892;28;20639;-85
2022/02/09 15:24:39;;;;;;;2.50;1.60;;;11.90;92.10;;;;;;5067226;28;20933;-85
2022/02/09 15:27:11;;;;;;;1.63;1.53;;;11.70;96.30;;;;;;5066462;28;20637;-85
2022/02/09 15:29:38;;;;;;;4.73;1.80;;;11.80;92.20;;;;;;5064486;28;21310;-85
2022/02/09 15:32:16;;;;;;;4.20;2.03;;;11.70;91.20;;;;;;5064776;28;20635;-85
2022/02/09 15:34:48;;;;;;;4.90;2.33;;;11.50;91.60;;;;;;5038830;28;20702;-85
2022/02/09 15:37:20;;;;;;;3.27;2.70;;;11.40;91.90;;;;;;5043884;28;20628;-85
2022/02/09 15:39:51;;;;;;;4.83;2.17;;;11.30;91.90;;;;;;5047244;28;20629;-85
2022/02/09 15:56:23;;;;;;;5.63;2.30;;;11.40;92.30;;;;;;5053903;28;20728;-85
2022/02/09 15:59:17;;;;;;;4.63;2.20;;;11.20;92.50;;;;;;5051420;28;20643;-85
2022/02/09 16:10:30;;;;;;;3.70;2.83;;;10.70;92.90;;;;;;5070282;28;21369;-85
2022/02/09 16:24:04;;;;;;;4.17;2.77;;;10.30;93.00;;;;;;5050017;28;21032;-85
2022/02/09 16:37:48;;;;;;;4.80;2.20;;;9.50;94.40;;;;;;5050013;28;20643;-85
2022/02/09 16:48:32;;;;;;;4.20;2.63;;;9.40;94.90;;;;;;5046676;28;20634;-85
2022/02/09 16:51:01;;;;;;;8.63;5.60;;;9.20;94.60;;;;;;5049845;28;20670;-85
2022/02/09 16:53:45;;;;;;;6.87;4.33;;;9.20;95.00;;;;;;5049938;28;20633;-85
2022/02/09 16:56:27;;;;;;;3.60;2.50;;;9.20;95.20;;;;;;5049746;28;20733;-85
2022/02/09 17:15:41;;;;;;;5.40;2.57;;;8.50;96.00;;;;;;5048527;28;20646;-85
2022/02/09 17:20:53;;;;;;;3.70;3.13;;;8.30;96.10;;;;;;5049444;28;20625;-85
2022/02/09 17:23:20;;;;;;;5.97;3.57;;;8.00;96.50;;;;;;5049396;28;20610;-85
2022/02/09 17:25:47;;;;;;;6.10;2.73;;;7.90;97.00;;;;;;5048846;28;20661;-82
2022/02/09 17:28:17;;;;;;;5.57;3.50;;;8.10;98.00;;;;;;5049742;28;20609;-83
2022/02/09 17:31:03;;;;;;;3.67;3.30;;;8.00;97.20;;;;;;5036446;28;20670;-85
2022/02/09 17:33:42;;;;;;;4.70;2.93;;;8.40;99.90;;;;;;5044742;28;20661;-85
2022/02/09 17:36:13;;;;;;;9.33;3.33;;;7.80;99.90;;;;;;5045415;28;20633;-85
2022/02/09 17:38:48;;;;;;;8.20;2.93;;;7.80;97.20;;;;;;5048216;28;20622;-86
2022/02/09 17:57:44;;;;;;;10.80;5.37;;;7.00;99.90;;;;;;5046739;28;20614;-85
2022/02/09 18:00:16;;;;;;;8.57;5.10;;;7.20;98.20;;;;;;5047345;28;20631;-85
2022/02/09 18:02:45;;;;;;;5.73;4.70;;;7.20;98.20;;;;;;5047346;28;20619;-85
2022/02/09 18:05:18;;;;;;;8.77;3.93;;;7.20;98.30;;;;;;5045572;28;20628;-85
2022/02/09 18:07:52;;;;;;;6.10;5.50;;;;;;;;;;5048106;28;20714;-85
2022/02/09 18:10:32;;;;;;;6.97;5.20;;;6.80;99.90;;;;;;5047822;28;20670;-85
2022/02/09 18:13:22;;;;;;;8.60;5.20;;;6.90;98.90;;;;;;5048090;28;22502;-85
2022/02/09 18:25:12;;;;;;;7.57;4.38;;;6.80;99.90;;;;;;5039571;28;20557;-85
2022/02/09 18:30:33;;;;;;;7.03;5.90;;;6.60;99.90;;;;;;5046566;28;20223;-85
2022/02/09 18:33:14;;;;;;;4.85;4.03;;;6.70;99.90;;;;;;5046901;28;20208;-85
2022/02/09 18:39:04;;;;;;;11.65;5.32;;;6.30;99.90;;;;;;5040539;28;20717;-86
2022/02/09 18:44:18;;;;;;;11.05;5.55;;;;;;;;;;5038545;28;20849;-85
2022/02/09 18:47:08;;;;;;;6.07;5.47;;;6.30;99.90;;;;;;5047388;28;20996;-85
2022/02/09 19:03:34;;;;;;;8.48;7.65;;;6.00;99.70;;;;;;5104709;27;21385;-83
2022/02/09 19:06:11;;;;;;;11.50;5.82;;;6.00;99.90;;;;;;5104272;28;20197;-83
2022/02/09 19:14:22;;;;;;;8.48;5.45;;;6.00;99.90;;;;;;5087915;28;20243;-83
2022/02/09 19:16:58;;;;;;;6.70;5.40;;;6.30;99.90;;;;;;5104643;28;20296;-83
2022/02/09 19:30:43;;;;;;;8.65;7.45;;;5.60;99.90;;;;;;5101808;28;20197;-83
2022/02/09 19:33:27;;;;;;;8.90;5.75;;;5.60;99.90;;;;;;5103506;28;20283;-83
2022/02/09 19:47:17;;;;;;;9.57;6.07;;;5.20;99.90;;;;;;5104157;28;20198;-83
2022/02/09 19:52:46;;;;;;;12.63;5.85;;;5.30;99.90;;;;;;5092916;28;20596;-83
2022/02/09 19:55:30;;;;;;;5.90;5.10;;;5.30;99.90;;;;;;5103314;28;20282;-84
2022/02/09 19:57:59;;;;;;;7.00;5.75;;;4.90;99.90;;;;;;5104130;28;20912;-83
2022/02/09 20:00:29;;;;;;;9.50;5.53;;;5.20;99.90;;;;;;5104960;28;20566;-83
2022/02/09 20:02:56;;;;;;;7.20;5.50;;;5.60;99.90;;;;;;5103403;28;20217;-83
2022/02/09 20:05:24;;;;;;;7.10;5.45;;;5.20;99.90;;;;;;5103585;28;20255;-83
2022/02/09 20:07:52;;;;;;;8.50;5.82;;;5.20;99.90;;;;;;5104196;28;20244;-83
2022/02/09 20:10:20;;;;;;;9.65;6.40;;;5.00;99.90;;;;;;5103254;28;20198;-83
2022/02/09 20:12:46;;;;;;;10.38;5.45;;;5.30;99.90;;;;;;5102674;28;20539;-83
2022/02/09 20:15:17;;;;;;;10.52;6.47;;;5.20;99.80;;;;;;5089331;28;20279;-83
2022/02/09 20:17:44;;;;;;;9.68;6.28;;;5.10;99.90;;;;;;5090383;28;20293;-83
2022/02/09 20:20:20;;;;;;;13.77;7.63;;;5.10;99.90;;;;;;5090377;28;20248;-83
2022/02/09 20:22:48;;;;;;;14.52;7.15;;;5.10;99.90;;;;;;5078166;28;20229;-83
2022/02/09 20:25:18;;;;;;;9.32;7.18;;;5.10;99.90;;;;;;5089471;28;20205;-84
2022/02/09 20:27:46;;;;;;;9.52;7.50;;;5.20;99.90;;;;;;5090116;28;20256;-83
2022/02/09 20:30:17;;;;;;;10.23;7.35;;;5.10;99.90;;;;;;5090381;28;20191;-83
2022/02/09 20:32:48;;;;;;;10.98;7.32;;;5.00;99.90;;;;;;5090451;28;20199;-84
2022/02/09 20:35:17;;;;;;;8.88;7.10;;;5.00;99.90;;;;;;5081825;28;20218;-84
2022/02/09 20:37:47;;;;;;;8.63;5.68;;;5.20;99.90;;;;;;5090165;28;20199;-86
2022/02/09 20:40:21;;;;;;;11.02;6.32;;;4.90;99.90;;;;;;5086931;28;20199;-86
2022/02/09 20:42:55;;;;;;;9.57;6.18;;;5.00;99.70;;;;;;5088075;28;20503;-84
2022/02/09 20:45:28;;;;;;;8.35;5.25;;;5.30;99.90;;;;;;5090136;28;20230;-85
2022/02/09 20:51:12;;;;;;;5.68;5.03;;;4.80;99.90;;;;;;5067100;28;20287;-87
2022/02/09 20:53:46;;;;;;;4.90;4.50;;;4.90;99.90;;;;;;5090167;28;20203;-88
2022/02/09 20:56:15;;;;;;;5.45;4.95;;;4.80;98.90;;;;;;5075988;28;20317;-89
2022/02/09 20:58:50;;;;;;;6.05;4.72;;;6.60;99.90;;;;;;5089892;28;20199;-89
2022/02/09 21:01:27;;;;;;;7.03;4.78;;;4.70;99.90;;;;;;5089157;28;20206;-90
2022/02/09 21:04:05;;;;;;;7.07;5.05;;;4.70;99.90;;;;;;5088455;28;20229;-87
2022/02/09 21:06:51;;;;;;;7.25;4.68;;;;;;;;;;5088913;28;20195;-88
2022/02/09 21:09:27;;;;;;;7.55;4.95;;;;;;;;;;5089602;28;20263;-88
2022/02/09 21:12:28;;;;;;;5.32;4.68;;;4.70;99.90;;;;;;5088944;28;20202;-90
2022/02/09 21:15:35;;;;;;;6.90;5.00;;;4.60;98.30;;;;;;5088216;28;20213;-88
2022/02/09 21:18:25;;;;;;;7.80;4.15;;;4.50;99.90;;;;;;5088957;28;20200;-89
2022/02/09 21:21:17;;;;;;;5.60;4.45;;;4.60;98.10;;;;;;5088392;28;20199;-88
2022/02/09 21:27:20;;;;;;;6.43;4.70;;;;;;;;;;5024924;28;20675;-89
2022/02/09 21:33:18;;;;;;;7.10;4.78;;;;;;;;;;5071042;28;20218;-90
2022/02/09 21:53:06;;;;;;;6.15;5.65;;;4.30;98.20;;;;;;5088760;28;20209;-87
2022/02/09 21:55:44;;;;;;;6.78;5.82;;;4.30;98.20;;;;;;5088160;28;20206;-87
2022/02/09 21:58:30;;;;;;;10.13;6.75;;;4.20;98.80;;;;;;5088403;28;20561;-86
2022/02/09 22:01:27;;;;;;;8.23;6.72;;;4.40;98.60;;;;;;5088593;28;20203;-87
2022/02/09 22:20:25;;;;;;;8.40;6.13;;;4.00;98.10;;;;;;5088536;28;20299;-87
2022/02/09 22:23:06;;;;;;;5.90;5.30;;;3.90;98.10;;;;;;5088438;28;20215;-87
2022/02/09 22:28:21;;;;;;;6.50;5.40;;;5.40;99.20;;;;;;5088364;28;20214;-87
2022/02/09 22:50:08;;;;;;;10.50;7.18;;;3.50;98.40;;;;;;5087553;28;20194;-90
2022/02/09 22:55:23;;;;;;;7.82;6.45;;;4.50;99.10;;;;;;5087155;28;20210;-90
2022/02/09 22:57:56;;;;;;;7.55;5.80;;;3.50;99.90;;;;;;5087732;28;20724;-90
2022/02/09 23:00:51;;;;;;;6.43;5.80;;;4.10;99.50;;;;;;5087937;28;20206;-89
2022/02/09 23:03:23;;;;;;;7.55;5.68;;;3.40;98.30;;;;;;5087410;28;20222;-90
2022/02/09 23:12:18;;;;;;;6.40;5.78;;;3.30;98.70;;;;;;5080163;28;20214;-90
2022/02/09 23:15:16;;;;;;;7.00;5.07;;;;;;;;;;5070866;28;20195;-89
2022/02/09 23:23:54;;;;;;;5.60;5.10;;;;;;;;;;5085420;28;20218;-89
